TimeCST,TemperatureF,Dew PointF,Humidity,Sea Level PressureIn,VisibilityMPH,Wind Direction,Wind SpeedMPH,Gust SpeedMPH,PrecipitationIn,Events,Conditions,WindDirDegrees,DateUTC
12:52 AM,32.0,25.0,75,30.61,10.0,North,8.1,-,N/A,,Mostly Cloudy,10,2013-11-23 06:52:00
1:52 AM,32.0,24.1,73,30.62,10.0,North,12.7,-,N/A,,Mostly Cloudy,10,2013-11-23 07:52:00
2:52 AM,30.9,24.1,76,30.63,10.0,North,10.4,-,N/A,,Scattered Clouds,350,2013-11-23 08:52:00
3:52 AM,30.9,23.0,72,30.63,10.0,North,8.1,-,N/A,,Overcast,360,2013-11-23 09:52:00
4:52 AM,30.9,21.9,69,30.65,10.0,North,11.5,-,N/A,,Overcast,350,2013-11-23 10:52:00
5:52 AM,32.0,21.0,64,30.66,10.0,North,9.2,-,N/A,,Overcast,360,2013-11-23 11:52:00
6:52 AM,32.0,19.0,59,30.67,10.0,North,11.5,-,N/A,,Overcast,10,2013-11-23 12:52:00
7:52 AM,32.0,17.1,54,30.70,10.0,North,10.4,-,N/A,,Overcast,360,2013-11-23 13:52:00
8:52 AM,33.1,16.0,50,30.71,10.0,North,11.5,-,N/A,,Mostly Cloudy,10,2013-11-23 14:52:00
9:52 AM,34.0,19.0,54,30.72,10.0,North,13.8,-,N/A,,Mostly Cloudy,360,2013-11-23 15:52:00
10:52 AM,35.1,19.9,54,30.74,10.0,North,19.6,-,N/A,,Overcast,10,2013-11-23 16:52:00
11:52 AM,36.0,19.9,52,30.73,10.0,NNE,18.4,-,N/A,,Mostly Cloudy,20,2013-11-23 17:52:00
12:52 PM,39.0,21.9,50,30.71,10.0,NNE,19.6,25.3,N/A,,Clear,20,2013-11-23 18:52:00
1:52 PM,39.0,21.0,49,30.70,10.0,NNE,18.4,25.3,N/A,,Clear,30,2013-11-23 19:52:00
2:52 PM,37.9,19.0,47,30.70,10.0,NNE,17.3,25.3,N/A,,Clear,20,2013-11-23 20:52:00
3:52 PM,35.1,19.0,52,30.72,10.0,North,15.0,-,N/A,,Clear,10,2013-11-23 21:52:00
4:52 PM,32.0,15.1,50,30.73,10.0,North,16.1,-,N/A,,Clear,10,2013-11-23 22:52:00
5:52 PM,30.0,14.0,51,30.74,10.0,NNE,13.8,-,N/A,,Clear,20,2013-11-23 23:52:00
6:52 PM,28.9,12.0,49,30.75,10.0,North,16.1,-,N/A,,Clear,10,2013-11-24 00:52:00
7:52 PM,28.0,12.0,51,30.76,10.0,NNE,10.4,-,N/A,,Clear,20,2013-11-24 01:52:00
8:52 PM,27.0,12.9,56,30.75,10.0,NNE,10.4,-,N/A,,Clear,20,2013-11-24 02:52:00
9:52 PM,26.1,12.9,58,30.76,10.0,NNE,9.2,-,N/A,,Clear,20,2013-11-24 03:52:00
10:52 PM,25.0,12.0,58,30.74,10.0,NNE,13.8,-,N/A,,Clear,30,2013-11-24 04:52:00
11:52 PM,24.1,12.0,60,30.74,10.0,NE,10.4,-,N/A,,Clear,40,2013-11-24 05:52:00